Time;durP1;ratioP1;P1;durP2;ratioP2;P2;SDS_P1;SDS_P2;PMS_P1;PMS_P2;Temp;Humidity;BMP_temperature;BMP_pressure;BME280_temperature;BME280_humidity;BME280_pressure;Samples;Min_cycle;Max_cycle;Signal;HPM_P1;HPM_P2
2023/01/04 00:02:22;;;;;;;19.40;4.43;;;;;;;;;;5084446;28;20049;-67
2023/01/04 00:04:49;;;;;;;20.30;5.18;;;;;;;;;;5084846;28;20380;-67
2023/01/04 00:07:18;;;;;;;16.85;4.20;;;;;;;;;;5084276;28;20052;-67
2023/01/04 00:09:45;;;;;;;20.58;5.03;;;;;;;;;;5066792;28;20040;-68
2023/01/04 00:12:12;;;;;;;19.15;5.10;;;;;;;;;;5086814;28;20044;-68
2023/01/04 00:14:39;;;;;;;10.95;4.72;;;;;;;;;;5082862;28;20063;-68
2023/01/04 00:17:06;;;;;;;14.77;4.60;;;;;;;;;;5086764;28;20588;-69
2023/01/04 00:19:34;;;;;;;16.70;4.60;;;;;;;;;;5083288;28;20041;-68
2023/01/04 00:22:01;;;;;;;16.17;4.28;;;;;;;;;;5086694;28;20047;-69
2023/01/04 00:24:29;;;;;;;13.73;4.05;;;;;;;;;;5084442;28;20047;-68
2023/01/04 00:26:57;;;;;;;17.50;4.38;;;;;;;;;;5086226;28;20047;-68
2023/01/04 00:29:24;;;;;;;12.75;4.90;;;;;;;;;;5086100;28;20487;-67
2023/01/04 00:31:51;;;;;;;14.25;4.40;;;;;;;;;;5086001;28;20816;-69
2023/01/04 00:34:19;;;;;;;15.43;4.68;;;;;;;;;;5083277;28;20067;-67
2023/01/04 00:36:46;;;;;;;17.30;4.20;;;;;;;;;;5083923;28;20067;-68
2023/01/04 00:39:15;;;;;;;10.95;3.90;;;;;;;;;;5085123;28;20563;-68
2023/01/04 00:41:45;;;;;;;13.25;4.00;;;;;;;;;;5081601;28;20051;-69
2023/01/04 00:44:12;;;;;;;10.85;3.78;;;;;;;;;;5085189;28;20049;-68
2023/01/04 00:46:40;;;;;;;9.35;4.00;;;;;;;;;;5077676;28;20044;-68
2023/01/04 00:49:08;;;;;;;16.40;4.60;;;;;;;;;;5077220;28;20963;-69
2023/01/04 00:51:36;;;;;;;12.52;4.25;;;;;;;;;;5073659;28;20044;-68
2023/01/04 00:54:04;;;;;;;11.68;3.88;;;;;;;;;;5075037;28;20052;-69
2023/01/04 00:56:31;;;;;;;10.77;4.60;;;;;;;;;;5082753;28;20058;-68
2023/01/04 00:59:00;;;;;;;12.45;3.90;;;;;;;;;;5074703;28;20040;-69
2023/01/04 01:01:28;;;;;;;14.65;4.55;;;;;;;;;;5076218;28;20048;-67
2023/01/04 01:03:56;;;;;;;13.60;4.70;;;;;;;;;;5073744;28;20051;-68
2023/01/04 01:06:24;;;;;;;12.60;4.18;;;;;;;;;;5081173;28;20044;-70
2023/01/04 01:08:51;;;;;;;9.65;4.22;;;;;;;;;;5077521;28;20118;-71
2023/01/04 01:11:19;;;;;;;10.77;4.30;;;;;;;;;;5080084;28;20151;-69
2023/01/04 01:13:46;;;;;;;13.65;5.10;;;;;;;;;;5078391;28;20213;-69
2023/01/04 01:16:16;;;;;;;11.43;5.03;;;;;;;;;;5080231;28;20051;-68
2023/01/04 01:18:44;;;;;;;13.95;5.07;;;;;;;;;;5075486;28;20065;-69
2023/01/04 01:21:13;;;;;;;10.40;4.38;;;;;;;;;;5084825;28;20133;-69
2023/01/04 01:23:42;;;;;;;13.20;5.20;;;;;;;;;;5084365;28;20047;-69
2023/01/04 01:26:12;;;;;;;12.43;4.30;;;;;;;;;;5078310;28;20044;-69
2023/01/04 01:28:39;;;;;;;9.50;4.80;;;;;;;;;;5075674;28;20578;-69
2023/01/04 01:31:07;;;;;;;12.88;4.57;;;;;;;;;;5084994;28;20043;-68
2023/01/04 01:33:36;;;;;;;13.10;5.43;;;;;;;;;;5088422;28;20044;-69
2023/01/04 01:36:03;;;;;;;9.57;4.80;;;;;;;;;;5083727;28;20571;-69
2023/01/04 01:38:31;;;;;;;10.13;5.18;;;;;;;;;;5060838;28;20136;-71
2023/01/04 01:40:58;;;;;;;8.40;4.10;;;;;;;;;;5081963;28;20040;-70
2023/01/04 01:43:40;;;;;;;14.02;4.25;;;;;;;;;;5080743;28;20044;-70
2023/01/04 01:46:07;;;;;;;10.05;4.30;;;;;;;;;;5081459;28;20052;-69
2023/01/04 01:48:36;;;;;;;14.50;4.70;;;;;;;;;;5084294;28;20063;-69
2023/01/04 01:51:04;;;;;;;8.05;3.60;;;;;;;;;;5081882;28;20167;-70
2023/01/04 01:53:34;;;;;;;9.00;4.18;;;;;;;;;;5085538;28;20491;-69
2023/01/04 01:56:01;;;;;;;10.02;4.00;;;;;;;;;;5079883;28;20089;-70
2023/01/04 01:58:30;;;;;;;10.15;3.70;;;;;;;;;;5084724;28;20043;-71
2023/01/04 02:00:58;;;;;;;6.78;3.03;;;;;;;;;;5082601;28;20433;-70
2023/01/04 02:03:27;;;;;;;6.13;3.42;;;;;;;;;;5083062;28;20051;-69
2023/01/04 02:05:57;;;;;;;9.35;3.80;;;;;;;;;;5080608;28;20048;-69
2023/01/04 02:08:25;;;;;;;6.20;3.42;;;;;;;;;;5081880;28;20486;-72
2023/01/04 02:10:52;;;;;;;3.72;2.83;;;;;;;;;;5084123;28;20040;-68
2023/01/04 02:13:22;;;;;;;7.22;3.53;;;;;;;;;;5080008;28;20055;-69
2023/01/04 02:15:53;;;;;;;8.57;2.92;;;;;;;;;;5084200;28;20064;-69
2023/01/04 02:18:23;;;;;;;5.65;3.00;;;;;;;;;;5085593;28;20048;-69
2023/01/04 02:20:53;;;;;;;4.65;2.85;;;;;;;;;;5060864;28;20040;-69
2023/01/04 02:23:39;;;;;;;5.13;3.03;;;;;;;;;;5082085;28;20517;-69
2023/01/04 02:26:25;;;;;;;7.22;2.85;;;;;;;;;;5059243;28;20048;-69
2023/01/04 02:29:06;;;;;;;5.20;2.85;;;;;;;;;;5077510;28;20060;-69
2023/01/04 02:31:40;;;;;;;6.35;2.75;;;;;;;;;;5081709;28;20058;-71
2023/01/04 02:34:12;;;;;;;4.50;2.50;;;;;;;;;;5082129;28;20260;-71
2023/01/04 02:36:43;;;;;;;5.57;2.90;;;;;;;;;;5083218;28;20051;-71
2023/01/04 02:39:15;;;;;;;9.48;2.80;;;;;;;;;;5069042;28;20048;-71
2023/01/04 02:41:44;;;;;;;6.30;3.13;;;;;;;;;;5081456;28;20040;-73
2023/01/04 02:47:02;;;;;;;8.15;3.28;;;;;;;;;;5078608;28;20117;-71
2023/01/04 02:52:15;;;;;;;5.05;2.90;;;;;;;;;;5072766;28;20101;-70
2023/01/04 02:54:43;;;;;;;5.18;3.30;;;;;;;;;;5064140;28;20059;-72
2023/01/04 02:57:26;;;;;;;11.10;4.07;;;;;;;;;;5064195;28;20052;-71
2023/01/04 03:00:04;;;;;;;5.63;3.60;;;;;;;;;;5080964;28;20056;-72
2023/01/04 03:08:23;;;;;;;7.32;4.55;;;;;;;;;;5061156;28;20105;-72
2023/01/04 03:10:55;;;;;;;6.75;4.57;;;;;;;;;;5058805;28;20044;-72
2023/01/04 03:13:25;;;;;;;8.15;4.90;;;;;;;;;;5058875;28;20522;-72
2023/01/04 03:15:54;;;;;;;7.57;5.30;;;;;;;;;;5061352;28;20823;-73
2023/01/04 03:18:24;;;;;;;9.68;5.05;;;;;;;;;;5065062;28;20482;-73
2023/01/04 03:20:52;;;;;;;12.35;7.15;;;;;;;;;;5063419;28;20087;-73
2023/01/04 03:37:17;;;;;;;25.73;9.23;;;;;;;;;;5074501;28;20052;-71
2023/01/04 03:48:30;;;;;;;19.13;6.88;;;;;;;;;;5081673;28;20075;-70
2023/01/04 03:51:01;;;;;;;26.40;6.70;;;;;;;;;;5080207;28;20105;-72
2023/01/04 03:53:29;;;;;;;27.55;5.85;;;;;;;;;;5079881;28;20693;-70
2023/01/04 03:55:58;;;;;;;23.58;6.57;;;;;;;;;;5084640;28;20048;-69
2023/01/04 03:58:26;;;;;;;24.17;5.80;;;;;;;;;;5083442;28;20052;-71
2023/01/04 04:01:02;;;;;;;20.20;5.03;;;;;;;;;;5077349;28;20087;-70
2023/01/04 04:09:00;;;;;;;26.40;5.90;;;;;;;;;;5084645;28;20059;-70
2023/01/04 04:11:31;;;;;;;22.90;4.38;;;;;;;;;;5076551;28;20056;-69
2023/01/04 04:13:59;;;;;;;25.05;4.30;;;;;;;;;;5085135;28;20048;-70
2023/01/04 04:16:26;;;;;;;22.30;4.28;;;;;;;;;;5087664;28;20050;-72
2023/01/04 04:18:54;;;;;;;28.50;5.65;;;;;;;;;;5081995;28;20136;-72
2023/01/04 04:21:22;;;;;;;17.95;3.97;;;;;;;;;;5064360;28;20050;-70
2023/01/04 04:23:50;;;;;;;28.08;4.90;;;;;;;;;;5084884;28;20055;-70
2023/01/04 04:26:17;;;;;;;31.73;4.95;;;;;;;;;;5085584;28;20036;-71
2023/01/04 04:28:45;;;;;;;27.05;4.93;;;;;;;;;;5065163;28;20061;-71
2023/01/04 04:31:12;;;;;;;31.58;5.53;;;;;;;;;;5065174;28;20052;-71
2023/01/04 04:33:41;;;;;;;26.83;4.88;;;;;;;;;;5084354;28;20045;-71
2023/01/04 04:36:09;;;;;;;26.17;5.30;;;;;;;;;;5064701;28;20733;-71
2023/01/04 04:38:38;;;;;;;25.92;5.28;;;;;;;;;;5076553;28;20047;-75
2023/01/04 04:43:54;;;;;;;20.50;4.97;;;;;;;;;;5057594;28;20146;-74
2023/01/04 04:46:21;;;;;;;17.65;4.55;;;;;;;;;;5059300;28;20056;-74
2023/01/04 04:48:48;;;;;;;16.13;5.38;;;;;;;;;;5080956;28;20060;-74
2023/01/04 04:51:16;;;;;;;19.67;5.50;;;;;;;;;;5069642;28;20036;-74
2023/01/04 04:53:44;;;;;;;23.67;5.65;;;;;;;;;;5064821;28;20059;-74
2023/01/04 04:56:12;;;;;;;25.98;5.65;;;;;;;;;;5061207;28;20095;-72
2023/01/04 04:58:40;;;;;;;20.75;5.72;;;;;;;;;;5068852;28;20425;-73
2023/01/04 05:01:08;;;;;;;18.75;5.32;;;;;;;;;;5066797;28;20827;-72
2023/01/04 05:03:35;;;;;;;15.50;4.03;;;;;;;;;;5068517;28;20479;-73
2023/01/04 05:06:03;;;;;;;16.75;3.65;;;;;;;;;;5066120;28;20052;-74
2023/01/04 05:08:30;;;;;;;15.00;4.07;;;;;;;;;;5069526;28;20055;-71
2023/01/04 05:10:59;;;;;;;15.25;3.58;;;;;;;;;;5080052;28;20047;-74
2023/01/04 05:13:25;;;;;;;14.80;3.97;;;;;;;;;;5069568;28;20060;-72
2023/01/04 05:15:54;;;;;;;12.10;3.60;;;;;;;;;;5067672;28;20060;-71
2023/01/04 05:18:22;;;;;;;14.10;3.80;;;;;;;;;;5063054;28;20193;-73
2023/01/04 05:20:51;;;;;;;18.67;4.32;;;;;;;;;;5062931;28;20056;-74
2023/01/04 05:23:19;;;;;;;20.77;4.28;;;;;;;;;;5065368;28;20059;-75
2023/01/04 05:25:47;;;;;;;14.40;3.15;;;;;;;;;;5063442;28;20083;-73
2023/01/04 05:28:15;;;;;;;13.75;3.08;;;;;;;;;;5067729;28;20052;-74
2023/01/04 05:30:52;;;;;;;11.63;3.90;;;;;;;;;;5086316;28;20043;-72
2023/01/04 05:33:20;;;;;;;13.70;4.72;;;;;;;;;;5063462;28;20058;-71
2023/01/04 05:35:47;;;;;;;14.40;4.28;;;;;;;;;;5081388;28;20139;-70
2023/01/04 05:38:14;;;;;;;13.73;4.65;;;;;;;;;;5062353;28;20048;-73
2023/01/04 05:40:42;;;;;;;16.33;5.03;;;;;;;;;;5077629;28;20048;-74
2023/01/04 05:43:09;;;;;;;16.80;4.32;;;;;;;;;;5071424;28;20056;-72
2023/01/04 05:45:38;;;;;;;16.23;5.75;;;;;;;;;;5064214;28;20479;-72
2023/01/04 05:48:05;;;;;;;16.50;4.95;;;;;;;;;;5077540;28;20044;-72
2023/01/04 05:50:33;;;;;;;25.58;5.75;;;;;;;;;;5067137;28;20071;-72
2023/01/04 05:53:01;;;;;;;17.70;4.38;;;;;;;;;;5067751;28;20082;-72
2023/01/04 05:55:28;;;;;;;14.63;4.45;;;;;;;;;;5052325;28;20060;-72
2023/01/04 05:58:01;;;;;;;;;;;;;;;;;;5060756;28;20478;-71
2023/01/04 06:00:30;;;;;;;24.38;4.53;;;;;;;;;;5085547;28;19939;-73
2023/01/04 06:02:59;;;;;;;27.50;4.55;;;;;;;;;;5089594;28;20551;-74
2023/01/04 06:05:33;;;;;;;25.30;4.22;;;;;;;;;;5070402;28;20056;-74
2023/01/04 06:08:02;;;;;;;21.95;4.03;;;;;;;;;;5066221;28;20052;-74
2023/01/04 06:10:30;;;;;;;26.65;3.72;;;;;;;;;;5068340;28;20055;-72
2023/01/04 06:13:05;;;;;;;;;;;;;;;;;;5068274;28;20144;-72
2023/01/04 06:15:33;;;;;;;23.70;3.85;;;;;;;;;;5072716;28;19920;-72
2023/01/04 06:18:01;;;;;;;27.42;3.67;;;;;;;;;;5054892;28;20044;-73
2023/01/04 06:20:29;;;;;;;33.20;4.72;;;;;;;;;;5064465;28;20044;-72
2023/01/04 06:22:56;;;;;;;25.55;4.10;;;;;;;;;;5060445;28;20065;-72
2023/01/04 06:25:24;;;;;;;32.25;4.22;;;;;;;;;;5080143;28;20052;-71
2023/01/04 06:27:52;;;;;;;26.42;3.83;;;;;;;;;;5066712;28;20155;-72
2023/01/04 06:30:19;;;;;;;30.27;4.60;;;;;;;;;;5067200;28;20052;-72
2023/01/04 06:32:46;;;;;;;32.60;4.38;;;;;;;;;;5064787;28;20056;-71
2023/01/04 06:35:18;;;;;;;24.92;4.45;;;;;;;;;;5059449;28;20052;-72
2023/01/04 06:37:45;;;;;;;35.15;4.95;;;;;;;;;;5080916;28;20051;-70
2023/01/04 06:40:12;;;;;;;39.70;4.88;;;;;;;;;;5056353;28;20085;-72
2023/01/04 06:42:46;;;;;;;38.58;5.10;;;;;;;;;;5080270;28;20056;-71
2023/01/04 06:45:13;;;;;;;;;;;;;;;;;;5080611;28;20044;-70
2023/01/04 06:47:40;;;;;;;37.15;4.38;;;;;;;;;;5062173;28;19927;-71
2023/01/04 06:50:08;;;;;;;34.58;5.07;;;;;;;;;;5072290;28;20056;-72
2023/01/04 06:52:36;;;;;;;43.83;6.47;;;;;;;;;;5082937;28;20051;-71
2023/01/04 06:55:04;;;;;;;45.30;5.53;;;;;;;;;;5080355;28;20056;-72
2023/01/04 06:57:31;;;;;;;39.85;5.60;;;;;;;;;;5061248;28;20056;-71
2023/01/04 06:59:59;;;;;;;43.05;5.90;;;;;;;;;;5061398;28;20059;-72
2023/01/04 07:02:26;;;;;;;54.65;6.07;;;;;;;;;;5064242;28;20040;-72
2023/01/04 07:04:53;;;;;;;40.90;7.05;;;;;;;;;;5062923;28;20088;-72
2023/01/04 07:07:20;;;;;;;42.60;6.85;;;;;;;;;;5079091;28;20059;-72
2023/01/04 07:09:49;;;;;;;46.80;6.75;;;;;;;;;;5054662;28;20142;-71
2023/01/04 07:12:16;;;;;;;48.08;5.28;;;;;;;;;;5078888;28;20044;-71
2023/01/04 07:14:44;;;;;;;60.08;6.75;;;;;;;;;;5062537;28;20056;-73
2023/01/04 07:17:11;;;;;;;45.67;6.60;;;;;;;;;;5059410;28;20063;-71
2023/01/04 07:19:39;;;;;;;50.00;5.60;;;;;;;;;;5071423;28;20056;-72
2023/01/04 07:22:07;;;;;;;42.95;6.53;;;;;;;;;;5084529;28;20052;-72
2023/01/04 07:24:34;;;;;;;51.92;6.38;;;;;;;;;;5090291;28;20079;-72
2023/01/04 07:27:04;;;;;;;45.28;6.53;;;;;;;;;;5065593;28;20064;-71
2023/01/04 07:29:34;;;;;;;47.58;6.07;;;;;;;;;;5085383;28;20051;-72
2023/01/04 07:32:01;;;;;;;55.00;6.93;;;;;;;;;;5059043;28;20056;-73
2023/01/04 07:34:32;;;;;;;40.55;5.43;;;;;;;;;;5081458;28;20055;-71
2023/01/04 07:36:59;;;;;;;41.42;4.95;;;;;;;;;;5065987;28;20056;-70
2023/01/04 07:39:29;;;;;;;43.53;5.63;;;;;;;;;;5061599;28;20066;-71
2023/01/04 07:41:57;;;;;;;45.58;6.07;;;;;;;;;;5079317;28;20044;-71
2023/01/04 07:44:26;;;;;;;40.90;5.32;;;;;;;;;;5063187;28;20052;-72
2023/01/04 07:47:00;;;;;;;38.13;5.18;;;;;;;;;;5081151;28;20793;-72
2023/01/04 07:49:27;;;;;;;37.22;6.22;;;;;;;;;;5064218;28;20055;-71
2023/01/04 07:51:54;;;;;;;46.78;6.00;;;;;;;;;;5081620;28;20040;-72
2023/01/04 07:54:22;;;;;;;35.63;4.47;;;;;;;;;;5064478;28;20379;-72
2023/01/04 07:56:53;;;;;;;37.45;5.53;;;;;;;;;;5089474;28;20044;-74
2023/01/04 07:59:21;;;;;;;45.83;5.53;;;;;;;;;;5094882;28;20044;-72
2023/01/04 08:01:50;;;;;;;39.97;6.22;;;;;;;;;;5073677;28;20541;-73
2023/01/04 08:04:18;;;;;;;37.33;4.78;;;;;;;;;;5066218;28;20043;-73
2023/01/04 08:06:46;;;;;;;36.45;5.68;;;;;;;;;;5068665;28;20060;-72
2023/01/04 08:09:14;;;;;;;41.25;5.10;;;;;;;;;;5069263;28;20044;-71
2023/01/04 08:11:41;;;;;;;37.78;5.50;;;;;;;;;;5086795;28;20049;-72
2023/01/04 08:14:09;;;;;;;30.40;4.80;;;;;;;;;;5071928;28;20048;-72
2023/01/04 08:16:37;;;;;;;45.70;5.50;;;;;;;;;;5073259;28;20077;-72
2023/01/04 08:19:06;;;;;;;42.28;6.57;;;;;;;;;;5067943;28;20162;-72
2023/01/04 08:21:34;;;;;;;32.78;5.45;;;;;;;;;;5068392;28;20078;-73
2023/01/04 08:24:01;;;;;;;44.47;4.65;;;;;;;;;;5082005;28;20048;-73
2023/01/04 08:26:29;;;;;;;43.20;6.15;;;;;;;;;;5063174;28;20052;-72
2023/01/04 08:28:56;;;;;;;37.17;5.25;;;;;;;;;;5087651;28;20044;-72
2023/01/04 08:31:25;;;;;;;38.53;5.95;;;;;;;;;;5075037;28;20150;-72
2023/01/04 08:33:53;;;;;;;44.75;5.85;;;;;;;;;;5078605;28;20509;-72
2023/01/04 08:36:23;;;;;;;35.85;5.68;;;;;;;;;;5064440;28;20063;-71
2023/01/04 08:38:51;;;;;;;50.10;5.80;;;;;;;;;;5068118;28;20098;-72
2023/01/04 08:41:19;;;;;;;48.08;6.45;;;;;;;;;;5084579;28;20059;-72
2023/01/04 08:43:46;;;;;;;43.58;5.47;;;;;;;;;;5065480;28;20048;-72
2023/01/04 08:46:14;;;;;;;42.80;6.65;;;;;;;;;;5062503;28;20054;-72
2023/01/04 08:48:41;;;;;;;45.03;6.53;;;;;;;;;;5065462;28;20058;-72
2023/01/04 08:51:09;;;;;;;48.05;5.82;;;;;;;;;;5062409;28;20095;-72
2023/01/04 08:53:38;;;;;;;58.03;6.90;;;;;;;;;;5063369;28;20052;-71
2023/01/04 08:56:06;;;;;;;58.90;8.43;;;;;;;;;;5080629;28;20048;-70
2023/01/04 08:58:36;;;;;;;68.00;7.93;;;;;;;;;;5085275;28;20044;-71
2023/01/04 09:01:04;;;;;;;58.45;7.57;;;;;;;;;;5062106;28;20178;-72
2023/01/04 09:03:31;;;;;;;58.42;7.15;;;;;;;;;;5086038;28;20056;-72
2023/01/04 09:06:02;;;;;;;60.50;9.13;;;;;;;;;;5068089;28;20083;-72
2023/01/04 09:08:31;;;;;;;61.92;7.65;;;;;;;;;;5084041;28;20047;-71
2023/01/04 09:10:59;;;;;;;58.60;7.60;;;;;;;;;;5078002;28;20044;-72
2023/01/04 09:13:26;;;;;;;58.65;7.60;;;;;;;;;;5085869;28;20052;-72
2023/01/04 09:15:54;;;;;;;73.22;9.82;;;;;;;;;;5065516;28;20656;-72
2023/01/04 09:18:21;;;;;;;64.68;8.15;;;;;;;;;;5065822;28;20051;-72
2023/01/04 09:20:48;;;;;;;58.25;6.68;;;;;;;;;;5069121;28;20710;-71
2023/01/04 09:23:15;;;;;;;61.40;7.10;;;;;;;;;;5082175;28;20052;-72
2023/01/04 09:25:43;;;;;;;66.32;7.50;;;;;;;;;;5080755;28;20060;-72
2023/01/04 09:28:11;;;;;;;68.75;8.13;;;;;;;;;;5066487;28;20055;-71
2023/01/04 09:30:39;;;;;;;62.95;7.85;;;;;;;;;;5061925;28;20049;-71
2023/01/04 09:33:06;;;;;;;56.58;7.55;;;;;;;;;;5057494;28;20044;-72
2023/01/04 09:35:34;;;;;;;65.22;9.55;;;;;;;;;;5063354;28;20066;-72
2023/01/04 09:38:01;;;;;;;56.90;7.60;;;;;;;;;;5064760;28;20103;-71
2023/01/04 09:40:31;;;;;;;60.13;7.75;;;;;;;;;;5059967;28;20052;-72
2023/01/04 09:42:59;;;;;;;55.60;6.68;;;;;;;;;;5063659;28;20045;-72
2023/01/04 09:45:28;;;;;;;64.28;7.82;;;;;;;;;;5066858;28;20050;-72
2023/01/04 09:47:57;;;;;;;61.42;7.78;;;;;;;;;;5068429;28;20522;-72
2023/01/04 09:50:26;;;;;;;61.22;7.00;;;;;;;;;;5084191;28;20045;-72
2023/01/04 09:52:58;;;;;;;61.25;7.72;;;;;;;;;;5084799;28;20044;-71
2023/01/04 09:55:28;;;;;;;47.27;6.50;;;;;;;;;;5081934;28;20051;-71
2023/01/04 09:57:58;;;;;;;67.90;7.45;;;;;;;;;;5086398;28;20559;-71
2023/01/04 10:00:26;;;;;;;58.90;7.95;;;;;;;;;;5080995;28;20048;-71
2023/01/04 10:02:58;;;;;;;55.78;7.18;;;;;;;;;;5067195;28;20059;-71
2023/01/04 10:05:28;;;;;;;62.38;7.07;;;;;;;;;;5085272;28;20533;-72
2023/01/04 10:07:55;;;;;;;57.55;7.97;;;;;;;;;;5069908;28;20055;-72
2023/01/04 10:10:27;;;;;;;52.63;7.97;;;;;;;;;;5061310;28;20071;-71
2023/01/04 10:13:03;;;;;;;54.80;6.65;;;;;;;;;;5083579;28;20040;-71
2023/01/04 10:15:34;;;;;;;60.47;7.85;;;;;;;;;;5080907;28;20463;-71
2023/01/04 10:18:11;;;;;;;58.60;6.88;;;;;;;;;;5067086;28;20066;-71
2023/01/04 10:20:53;;;;;;;59.35;7.63;;;;;;;;;;5069922;28;20469;-71
2023/01/04 10:23:26;;;;;;;54.83;6.85;;;;;;;;;;5061418;28;20493;-72
2023/01/04 10:25:55;;;;;;;64.82;8.77;;;;;;;;;;5084375;28;20044;-71
2023/01/04 10:28:39;;;;;;;49.10;6.78;;;;;;;;;;5067653;28;20631;-72
2023/01/04 10:31:06;;;;;;;;;;;;;;;;;;5060925;28;20047;-72
2023/01/04 10:33:43;;;;;;;56.60;9.07;;;;;;;;;;5067394;28;19928;-71
2023/01/04 10:36:18;;;;;;;60.45;8.05;;;;;;;;;;5066977;28;20092;-72
2023/01/04 10:38:45;;;;;;;58.80;8.00;;;;;;;;;;5060609;28;20570;-71
2023/01/04 10:41:14;;;;;;;60.63;7.50;;;;;;;;;;5081722;28;20054;-71
2023/01/04 10:43:45;;;;;;;55.70;7.07;;;;;;;;;;5063853;28;20043;-72
2023/01/04 10:46:16;;;;;;;48.22;6.63;;;;;;;;;;5062328;28;20051;-72
2023/01/04 10:48:50;;;;;;;40.35;5.90;;;;;;;;;;5060801;28;20055;-71
2023/01/04 10:51:21;;;;;;;47.38;5.78;;;;;;;;;;5083548;28;20497;-71
2023/01/04 10:53:50;;;;;;;36.50;4.72;;;;;;;;;;5076288;28;20152;-71
2023/01/04 10:56:21;;;;;;;26.00;4.47;;;;;;;;;;5074713;28;20045;-72
2023/01/04 10:58:50;;;;;;;35.30;4.57;;;;;;;;;;5065801;28;20056;-72
2023/01/04 11:01:19;;;;;;;37.65;4.80;;;;;;;;;;5081061;28;20053;-71
2023/01/04 11:03:50;;;;;;;33.60;4.20;;;;;;;;;;5078542;28;20067;-71
2023/01/04 11:06:20;;;;;;;45.67;5.55;;;;;;;;;;5057147;28;20571;-71
2023/01/04 11:08:50;;;;;;;37.13;5.70;;;;;;;;;;5054949;28;20636;-72
2023/01/04 11:11:21;;;;;;;38.20;5.40;;;;;;;;;;5074787;28;20411;-72
2023/01/04 11:13:49;;;;;;;57.58;7.63;;;;;;;;;;5074143;28;20045;-71
2023/01/04 11:16:16;;;;;;;63.47;8.65;;;;;;;;;;5061887;28;20059;-72
2023/01/04 11:18:44;;;;;;;60.95;8.77;;;;;;;;;;5075808;28;20049;-71
2023/01/04 11:21:14;;;;;;;57.53;7.88;;;;;;;;;;5069229;28;20060;-72
2023/01/04 11:23:41;;;;;;;56.47;8.02;;;;;;;;;;5075854;28;20452;-72
2023/01/04 11:26:10;;;;;;;55.63;8.05;;;;;;;;;;5088108;28;20058;-71
2023/01/04 11:28:40;;;;;;;48.50;6.03;;;;;;;;;;5064787;28;20410;-72
2023/01/04 11:31:15;;;;;;;63.38;7.22;;;;;;;;;;5074196;28;20372;-72
2023/01/04 11:33:52;;;;;;;48.00;6.85;;;;;;;;;;5072661;28;20127;-72
2023/01/04 11:36:32;;;;;;;40.10;5.60;;;;;;;;;;5082251;28;20060;-71
2023/01/04 11:39:00;;;;;;;53.85;7.30;;;;;;;;;;5068092;28;20927;-71
2023/01/04 11:41:27;;;;;;;41.75;6.63;;;;;;;;;;5064978;28;20048;-71
2023/01/04 11:43:59;;;;;;;43.67;6.05;;;;;;;;;;5065436;28;20049;-71
2023/01/04 11:46:26;;;;;;;46.60;5.43;;;;;;;;;;5090938;28;20495;-71
2023/01/04 11:48:54;;;;;;;41.00;5.97;;;;;;;;;;5069912;28;20056;-71
2023/01/04 11:51:35;;;;;;;48.85;6.13;;;;;;;;;;5074744;28;20151;-71
2023/01/04 11:54:05;;;;;;;39.38;6.00;;;;;;;;;;5069799;28;20055;-72
2023/01/04 11:56:33;;;;;;;43.80;5.32;;;;;;;;;;5078458;28;20048;-72
2023/01/04 11:59:12;;;;;;;37.22;5.43;;;;;;;;;;5083269;28;20044;-71
2023/01/04 12:01:40;;;;;;;37.38;5.07;;;;;;;;;;5068089;28;20060;-70
2023/01/04 12:04:12;;;;;;;37.50;5.10;;;;;;;;;;5088456;28;20471;-71
2023/01/04 12:06:41;;;;;;;40.67;5.93;;;;;;;;;;5086519;28;20041;-72
2023/01/04 12:09:13;;;;;;;29.35;4.28;;;;;;;;;;5086173;28;20050;-71
2023/01/04 12:11:42;;;;;;;27.63;3.97;;;;;;;;;;5067821;28;20394;-71
2023/01/04 12:14:15;;;;;;;28.48;4.72;;;;;;;;;;5087928;28;20044;-71
2023/01/04 12:16:45;;;;;;;36.72;4.30;;;;;;;;;;5083491;28;20052;-71
2023/01/04 12:19:14;;;;;;;40.08;4.68;;;;;;;;;;5067341;28;20487;-72
2023/01/04 12:21:44;;;;;;;26.48;4.13;;;;;;;;;;5075943;28;20067;-70
2023/01/04 12:24:17;;;;;;;30.67;4.03;;;;;;;;;;5065946;28;20475;-71
2023/01/04 12:26:44;;;;;;;28.92;4.47;;;;;;;;;;5059138;28;20048;-72
2023/01/04 12:29:30;;;;;;;35.10;4.93;;;;;;;;;;5054953;28;20164;-72
2023/01/04 12:32:26;;;;;;;31.63;3.67;;;;;;;;;;5062154;28;20067;-71
2023/01/04 12:34:55;;;;;;;29.73;4.40;;;;;;;;;;5079609;28;20074;-71
2023/01/04 12:37:44;;;;;;;31.80;4.40;;;;;;;;;;5060792;28;20475;-72
2023/01/04 12:40:27;;;;;;;33.28;4.15;;;;;;;;;;5070091;28;20059;-71
2023/01/04 12:43:09;;;;;;;32.33;4.35;;;;;;;;;;5055568;28;20491;-71
2023/01/04 12:45:36;;;;;;;37.60;4.93;;;;;;;;;;5059623;28;20067;-72
2023/01/04 12:51:20;;;;;;;34.28;4.70;;;;;;;;;;5063301;28;20052;-71
2023/01/04 12:54:05;;;;;;;33.85;5.57;;;;;;;;;;5065689;28;20128;-72
2023/01/04 12:56:51;;;;;;;31.88;4.60;;;;;;;;;;5075702;28;20478;-71
2023/01/04 12:59:31;;;;;;;34.47;3.92;;;;;;;;;;5072965;28;20068;-71
2023/01/04 13:02:18;;;;;;;39.75;5.93;;;;;;;;;;5068944;28;20075;-71
2023/01/04 13:04:46;;;;;;;42.65;5.53;;;;;;;;;;5064736;28;20044;-70
2023/01/04 13:07:23;;;;;;;43.38;6.28;;;;;;;;;;5085714;28;20044;-71
2023/01/04 13:09:58;;;;;;;39.45;5.22;;;;;;;;;;5059616;28;20060;-71
2023/01/04 13:12:36;;;;;;;37.88;5.80;;;;;;;;;;5066310;28;20875;-71
2023/01/04 13:15:04;;;;;;;40.83;5.43;;;;;;;;;;5082282;28;20040;-72
2023/01/04 13:17:32;;;;;;;43.13;5.80;;;;;;;;;;5066604;28;20052;-72
2023/01/04 13:20:00;;;;;;;38.78;5.25;;;;;;;;;;5068447;28;20044;-71
2023/01/04 13:22:32;;;;;;;43.92;5.95;;;;;;;;;;5081924;28;20082;-72
2023/01/04 13:25:03;;;;;;;38.25;5.68;;;;;;;;;;5063038;28;20101;-71
2023/01/04 13:27:30;;;;;;;38.97;5.30;;;;;;;;;;5062944;28;20105;-72
2023/01/04 13:29:58;;;;;;;38.30;5.55;;;;;;;;;;5058703;28;20056;-72
2023/01/04 13:32:26;;;;;;;49.83;5.75;;;;;;;;;;5078774;28;20458;-72
2023/01/04 13:34:55;;;;;;;46.50;6.93;;;;;;;;;;5064768;28;20546;-72
2023/01/04 13:37:27;;;;;;;44.92;6.25;;;;;;;;;;5064675;28;20052;-72
2023/01/04 13:40:03;;;;;;;43.37;5.63;;;;;;;;;;5065193;28;20461;-71
2023/01/04 13:42:32;;;;;;;42.58;5.50;;;;;;;;;;5058561;28;20052;-71
2023/01/04 13:45:16;;;;;;;40.47;5.20;;;;;;;;;;5082675;28;20056;-71
2023/01/04 13:47:44;;;;;;;41.50;5.22;;;;;;;;;;5062177;28;20048;-71
2023/01/04 13:50:21;;;;;;;43.63;7.10;;;;;;;;;;5084060;28;20040;-71
2023/01/04 13:52:48;;;;;;;53.42;6.88;;;;;;;;;;5059698;28;20044;-71
2023/01/04 13:55:20;;;;;;;35.38;5.47;;;;;;;;;;5081548;28;20052;-72
2023/01/04 13:57:55;;;;;;;36.80;6.35;;;;;;;;;;5065860;28;20047;-72
2023/01/04 14:00:22;;;;;;;47.20;5.35;;;;;;;;;;5073236;28;20090;-71
2023/01/04 14:03:02;;;;;;;48.08;5.70;;;;;;;;;;5058397;28;20055;-72
2023/01/04 14:05:29;;;;;;;44.78;7.50;;;;;;;;;;5068794;28;20058;-72
2023/01/04 14:07:56;;;;;;;45.25;5.75;;;;;;;;;;5063799;28;20052;-71
2023/01/04 14:10:25;;;;;;;49.15;6.65;;;;;;;;;;5065957;28;20044;-72
2023/01/04 14:12:52;;;;;;;38.15;5.60;;;;;;;;;;5066343;28;20044;-72
2023/01/04 14:15:22;;;;;;;46.97;5.88;;;;;;;;;;5068928;28;20067;-72
2023/01/04 14:17:50;;;;;;;43.33;6.20;;;;;;;;;;5061681;28;20517;-72
2023/01/04 14:20:33;;;;;;;39.78;5.32;;;;;;;;;;5062313;28;20052;-71
2023/01/04 14:23:00;;;;;;;42.03;5.85;;;;;;;;;;5060521;28;20052;-72
2023/01/04 14:25:54;;;;;;;46.60;6.25;;;;;;;;;;5061387;28;20067;-71
2023/01/04 14:28:37;;;;;;;44.78;6.18;;;;;;;;;;5069576;28;20418;-72
2023/01/04 14:31:15;;;;;;;42.95;5.20;;;;;;;;;;5065307;28;20043;-71
2023/01/04 14:33:44;;;;;;;39.63;5.30;;;;;;;;;;5062987;28;20494;-72
2023/01/04 14:36:13;;;;;;;36.85;5.95;;;;;;;;;;5084575;28;20104;-72
2023/01/04 14:38:41;;;;;;;32.30;4.70;;;;;;;;;;5064385;28;20537;-72
2023/01/04 14:41:22;;;;;;;35.78;5.03;;;;;;;;;;5064861;28;20502;-72
2023/01/04 14:43:53;;;;;;;34.75;5.95;;;;;;;;;;5060810;28;20044;-74
2023/01/04 14:46:20;;;;;;;48.95;6.43;;;;;;;;;;5062216;28;20060;-74
2023/01/04 14:48:48;;;;;;;46.63;5.78;;;;;;;;;;5067738;28;20047;-74
2023/01/04 14:51:16;;;;;;;48.53;5.75;;;;;;;;;;5063888;28;20046;-74
2023/01/04 14:53:43;;;;;;;52.35;7.93;;;;;;;;;;5058050;28;20051;-74
2023/01/04 14:56:12;;;;;;;43.35;5.72;;;;;;;;;;5058520;28;20056;-74
2023/01/04 14:58:40;;;;;;;44.65;6.47;;;;;;;;;;5063653;28;20056;-74
2023/01/04 15:01:09;;;;;;;38.30;5.10;;;;;;;;;;5063028;28;20054;-74
2023/01/04 15:03:36;;;;;;;40.38;5.65;;;;;;;;;;5066683;28;20070;-72
2023/01/04 15:06:04;;;;;;;45.83;5.40;;;;;;;;;;5069650;28;20080;-74
2023/01/04 15:08:31;;;;;;;40.00;5.90;;;;;;;;;;5064431;28;20687;-74
2023/01/04 15:10:59;;;;;;;34.40;5.45;;;;;;;;;;5057782;28;20375;-75
2023/01/04 15:13:26;;;;;;;36.17;6.30;;;;;;;;;;5064503;28;20086;-74
2023/01/04 15:15:53;;;;;;;35.30;5.68;;;;;;;;;;5058602;28;20050;-74
2023/01/04 15:18:22;;;;;;;43.65;5.50;;;;;;;;;;5069190;28;20134;-75
2023/01/04 15:20:49;;;;;;;46.42;7.18;;;;;;;;;;5063297;28;20048;-75
2023/01/04 15:23:16;;;;;;;47.55;6.20;;;;;;;;;;5064161;28;20055;-76
2023/01/04 15:25:44;;;;;;;44.47;6.32;;;;;;;;;;5065065;28;20082;-75
2023/01/04 15:28:11;;;;;;;32.83;5.07;;;;;;;;;;5070657;28;20490;-77
2023/01/04 15:30:41;;;;;;;47.70;5.40;;;;;;;;;;5062391;28;20040;-74
2023/01/04 15:33:09;;;;;;;38.60;5.53;;;;;;;;;;5063466;28;20488;-75
2023/01/04 15:35:38;;;;;;;43.33;5.82;;;;;;;;;;5073833;28;20051;-73